Hauptseite
METAR-TAF:

METAR-TAF

Flughäfen :

Flughafen Alexandroupoli

Alexandroupolis, Griechenland

Breite: 40-51N, Länge: 025-55E, Höhe: 7 m

Beobachtung

Neuester Wetterbericht von vor 32 Minuten, um 14:20 UTC
Wind 8 kt aus Südwest
Temperatur 14°C
Luftfeuchtigkeit 55%
Luftdruck 1016 hPa
Sichtweite 10 km oder mehr
keine Wolken unter 1500 m und keine Kumulonimbus oder Gewitterwolken

METAR: LGAL 251420Z 23008KT CAVOK 14/05 Q1016

Zeit: 16:52 (14:52 UTC)

Prognose

Neuester Wetterbericht von vor 52 Minuten, um 14:00 UTC
Gültige Prognose vom 25 um 15 UTC bis 25 um 24 UTC
Wind 8 kt aus West/Südwest
Sichtweite 10 km oder mehr
Leicht bewölkt in der Höhe von 2500 ft

TAF: LGAL 251400Z 2515/2524 24008KT 9999 FEW025

Wetterbeobachtungen und Prognosen von mehr als 4000 Flughäfen (METAR und TAF Bericht).

Die verfügbaren Stationen werden durch gelbe und rote Markierungen auf der Karte dargestellt.

Führen Sie die Maus auf sie, um den Namen der Station zu sehen.

Darauf klicken, um die Beobachtung von Wetterbeobachtungen und Prognosen zu sehen.

Um die Karte zu ändern : klicken Sie auf den grünen Tasten mit einem schwarzen Kreuz Zum Vergrößern, auf den grünen Button mit einem Gedankenstrich zu verkleinern, oder auf die grünen Pfeile für benachbarte Karten.


METAR-TAF: